Time;durP1;ratioP1;P1;durP2;ratioP2;P2;SDS_P1;SDS_P2;PMS_P1;PMS_P2;Temp;Humidity;BMP_temperature;BMP_pressure;BME280_temperature;BME280_humidity;BME280_pressure;Samples;Min_cycle;Max_cycle;Signal;HPM_P1;HPM_P2
2022/07/04 00:03:29;;;;;;;6.05;2.88;;;;;;;14.30;80.09;101992.16;10503007;28;20052;-74
2022/07/04 00:08:29;;;;;;;7.05;3.08;;;;;;;14.28;80.11;101986.06;10484803;28;20087;-74
2022/07/04 00:13:29;;;;;;;6.40;2.47;;;;;;;14.20;80.27;101986.22;10503050;28;20040;-74
2022/07/04 00:18:30;;;;;;;6.90;3.35;;;;;;;14.17;81.12;101981.16;10484659;28;20124;-73
2022/07/04 00:23:30;;;;;;;16.80;2.92;;;;;;;14.20;80.96;101969.88;10486193;28;20482;-75
2022/07/04 00:28:31;;;;;;;4.72;3.00;;;;;;;14.26;82.23;101970.94;10490701;28;20044;-74
2022/07/04 00:33:31;;;;;;;3.60;2.17;;;;;;;14.27;82.36;101968.03;10493571;28;20047;-74
2022/07/04 00:38:31;;;;;;;4.22;3.13;;;;;;;14.28;83.53;101963.44;10508135;28;20040;-73
2022/07/04 00:43:32;;;;;;;8.57;3.15;;;;;;;14.29;83.19;101965.94;10501778;28;20123;-74
2022/07/04 00:48:32;;;;;;;2.83;2.63;;;;;;;14.26;83.66;101962.75;10500729;28;20032;-73
2022/07/04 00:53:33;;;;;;;2.97;2.67;;;;;;;14.30;85.12;101958.63;10482096;28;20090;-74
2022/07/04 00:58:33;;;;;;;2.97;2.72;;;;;;;14.33;85.38;101960.97;10499208;28;20124;-73
2022/07/04 01:03:33;;;;;;;8.15;2.58;;;;;;;14.35;85.28;101956.13;10498361;28;20072;-74
2022/07/04 01:08:41;;;;;;;6.85;3.00;;;;;;;14.38;87.50;101955.75;10481878;28;20036;-75
2022/07/04 01:13:41;;;;;;;4.88;3.10;;;;;;;14.35;87.46;101939.78;10500462;28;20032;-73
2022/07/04 01:18:42;;;;;;;2.30;2.10;;;;;;;14.37;88.83;101938.56;10499460;28;20032;-73
2022/07/04 01:23:42;;;;;;;10.77;3.33;;;;;;;14.41;89.17;101936.28;10499206;28;20039;-73
2022/07/04 01:28:43;;;;;;;11.07;3.45;;;;;;;14.40;88.14;101934.59;10481392;28;20117;-73
2022/07/04 01:33:43;;;;;;;10.10;2.80;;;;;;;14.37;88.18;101938.56;10497551;28;20571;-74
2022/07/04 01:38:44;;;;;;;2.50;2.30;;;;;;;14.36;87.62;101934.16;10498953;28;20044;-73
2022/07/04 01:43:44;;;;;;;14.90;3.58;;;;;;;14.35;88.60;101937.06;10498868;28;20064;-74
2022/07/04 01:48:45;;;;;;;6.70;2.58;;;;;;;14.41;88.83;101936.28;10498988;28;20032;-74
2022/07/04 01:53:45;;;;;;;6.13;2.47;;;;;;;14.42;88.88;101927.06;10499365;28;20376;-73
2022/07/04 01:58:45;;;;;;;5.60;2.50;;;;;;;14.45;88.57;101932.13;10499265;28;20044;-73
2022/07/04 02:03:46;;;;;;;2.92;2.72;;;;;;;14.47;88.95;101932.78;10498435;28;20048;-74
2022/07/04 02:14:05;;;;;;;4.97;3.05;;;;;;;14.46;88.95;101928.38;10497736;28;20033;-75
2022/07/04 02:19:05;;;;;;;3.35;2.38;;;;;;;14.39;89.28;101930.22;10498508;28;20049;-74
2022/07/04 02:24:06;;;;;;;6.18;2.72;;;;;;;14.46;90.67;101933.81;10498101;28;20033;-75
2022/07/04 02:29:06;;;;;;;6.10;2.50;;;;;;;14.52;91.52;101938.50;10479847;28;20435;-74
2022/07/04 02:34:07;;;;;;;9.45;2.65;;;;;;;14.58;93.44;101935.00;10497041;28;20033;-74
2022/07/04 02:39:07;;;;;;;8.40;3.38;;;;;;;14.63;93.31;101923.47;10497250;28;20464;-74
2022/07/04 02:44:08;;;;;;;10.07;3.58;;;;;;;14.62;94.37;101909.00;10498141;28;20043;-74
2022/07/04 02:49:08;;;;;;;5.75;3.22;;;;;;;14.70;92.79;101916.19;10496664;28;20039;-75
2022/07/04 02:54:09;;;;;;;11.02;3.80;;;;;;;14.75;93.51;101923.78;10503377;28;20082;-75
2022/07/04 02:59:09;;;;;;;12.10;3.35;;;;;;;14.73;93.62;101923.97;10505071;28;20025;-75
2022/07/04 03:04:09;;;;;;;6.75;3.78;;;;;;;14.69;93.72;101935.47;10482800;28;20144;-75
2022/07/04 03:09:10;;;;;;;4.88;2.47;;;;;;;14.68;94.60;101937.38;10496403;28;20116;-73
2022/07/04 03:14:10;;;;;;;4.90;3.17;;;;;;;14.65;93.05;101940.50;10501090;28;20035;-75
2022/07/04 03:19:10;;;;;;;6.88;3.70;;;;;;;14.63;92.47;101937.09;10504149;28;20036;-74
2022/07/04 03:24:11;;;;;;;11.20;3.30;;;;;;;14.61;92.32;101923.69;10503936;28;20043;-74
2022/07/04 03:29:11;;;;;;;2.70;2.50;;;;;;;14.61;91.86;101929.16;10503314;28;20380;-73
2022/07/04 03:34:12;;;;;;;6.38;2.97;;;;;;;14.55;92.16;101932.66;10503824;28;20097;-73
2022/07/04 03:39:12;;;;;;;9.02;3.63;;;;;;;14.56;92.75;101941.69;10503565;28;20475;-74
2022/07/04 03:44:13;;;;;;;4.55;3.67;;;;;;;14.60;92.15;101937.50;10485104;28;20033;-75
2022/07/04 03:49:13;;;;;;;8.13;3.92;;;;;;;14.61;92.60;101940.06;10504086;28;20040;-74
2022/07/04 03:54:13;;;;;;;9.45;4.43;;;;;;;14.69;92.90;101951.84;10503049;28;20032;-74
2022/07/04 03:59:14;;;;;;;16.77;4.13;;;;;;;14.74;92.70;101950.22;10503917;28;20037;-75
2022/07/04 04:09:33;;;;;;;14.82;5.22;;;;;;;14.77;93.47;101959.84;10503097;28;20064;-75
2022/07/04 04:14:33;;;;;;;9.45;4.22;;;;;;;14.80;93.11;101959.44;10501235;28;20064;-74
2022/07/04 04:19:34;;;;;;;5.88;4.38;;;;;;;14.82;92.91;101968.28;10503048;28;20448;-76
2022/07/04 04:24:34;;;;;;;9.80;4.47;;;;;;;14.85;93.70;101966.00;10501293;28;20116;-74
2022/07/04 04:29:35;;;;;;;8.15;4.28;;;;;;;14.91;93.16;101972.53;10483941;28;20509;-74
2022/07/04 04:34:35;;;;;;;8.43;3.88;;;;;;;15.07;94.28;101968.66;10484294;28;20032;-75
2022/07/04 04:39:35;;;;;;;14.38;4.45;;;;;;;15.22;94.04;101969.38;10499577;28;20036;-73
2022/07/04 04:44:36;;;;;;;11.77;5.75;;;;;;;15.80;93.75;101982.66;10482985;28;20119;-74
2022/07/04 04:49:36;;;;;;;6.13;4.10;;;;;;;16.41;95.21;101985.25;10498926;28;20032;-74
2022/07/04 04:54:37;;;;;;;8.63;4.00;;;;;;;16.40;94.35;102005.47;10500593;28;20055;-75
2022/07/04 04:59:37;;;;;;;8.75;4.47;;;;;;;16.67;95.26;102009.03;10501588;28;20119;-75
2022/07/04 05:04:37;;;;;;;11.85;3.90;;;;;;;17.16;96.19;102006.88;10483527;28;20444;-68
2022/07/04 05:09:39;;;;;;;10.32;4.47;;;;;;;17.13;97.16;102012.78;10482462;28;20037;-74
2022/07/04 05:14:39;;;;;;;6.75;3.20;;;;;;;17.08;96.79;102005.22;10499569;28;20366;-74
2022/07/04 05:19:39;;;;;;;4.53;2.97;;;;;;;17.44;95.61;102001.94;10506470;28;20036;-75
2022/07/04 05:24:40;;;;;;;7.90;2.90;;;;;;;17.50;95.49;102003.00;10492154;28;20040;-74
2022/07/04 05:29:40;;;;;;;4.00;2.42;;;;;;;17.76;94.59;102006.66;10506506;28;20572;-75
2022/07/04 05:34:41;;;;;;;10.30;3.08;;;;;;;18.88;93.21;102006.97;10500089;28;20040;-76
2022/07/04 05:39:41;;;;;;;11.20;3.78;;;;;;;19.98;92.16;101998.72;10497697;28;20064;-75
2022/07/04 05:44:42;;;;;;;17.27;3.70;;;;;;;20.87;91.71;102004.28;10498158;28;20107;-75
2022/07/04 05:49:42;;;;;;;4.70;3.22;;;;;;;21.48;90.54;101993.81;10484794;28;20052;-75
2022/07/04 05:54:43;;;;;;;6.03;2.40;;;;;;;22.15;88.82;101994.03;10498821;28;20032;-75
2022/07/04 05:59:44;;;;;;;5.22;2.55;;;;;;;22.38;88.96;102001.34;10481965;28;20028;-75
2022/07/04 06:04:45;;;;;;;4.13;2.28;;;;;;;22.61;86.99;101982.94;10498930;28;20049;-74
2022/07/04 06:09:45;;;;;;;2.10;1.90;;;;;;;23.05;85.29;101985.84;10497653;28;20142;-75
2022/07/04 06:14:46;;;;;;;2.00;1.77;;;;;;;23.35;81.52;101986.25;10498359;28;20108;-76
2022/07/04 06:19:46;;;;;;;4.55;2.38;;;;;;;23.80;80.77;101984.31;10498517;28;20048;-75
2022/07/04 06:24:47;;;;;;;2.97;1.40;;;;;;;24.25;78.96;101978.41;10497807;28;20056;-75
2022/07/04 06:29:47;;;;;;;1.98;1.88;;;;;;;24.56;75.14;101971.19;10480796;28;20024;-76
2022/07/04 06:40:07;;;;;;;2.05;1.20;;;;;;;25.18;71.29;101977.19;10498130;28;20119;-75
2022/07/04 06:45:08;;;;;;;1.83;1.73;;;;;;;25.61;70.85;101989.00;10497246;28;20536;-76
2022/07/04 06:50:09;;;;;;;4.13;1.85;;;;;;;25.87;68.80;101998.25;10485037;28;20040;-75
2022/07/04 06:55:09;;;;;;;8.60;2.05;;;;;;;26.18;67.58;101996.38;10506335;28;20041;-75
2022/07/04 07:00:10;;;;;;;2.92;1.50;;;;;;;26.52;66.09;101990.31;10506489;28;20043;-75
2022/07/04 07:05:10;;;;;;;7.40;1.55;;;;;;;26.95;65.28;101990.78;10507846;28;20044;-74
2022/07/04 07:10:11;;;;;;;1.48;1.45;;;;;;;26.86;58.89;101990.53;10490868;28;20443;-74
2022/07/04 07:15:11;;;;;;;1.52;1.40;;;;;;;26.93;56.08;101982.75;10493186;28;20039;-75
2022/07/04 07:20:13;;;;;;;3.08;1.58;;;;;;;26.34;61.00;101992.47;10512982;28;20036;-75
2022/07/04 07:25:13;;;;;;;1.83;1.73;;;;;;;26.12;56.02;101983.59;10498621;28;20032;-75
2022/07/04 07:30:14;;;;;;;2.47;1.63;;;;;;;26.92;55.18;101989.41;10518382;28;20090;-76
2022/07/04 07:35:14;;;;;;;2.15;1.73;;;;;;;27.47;56.06;101987.59;10515849;28;20064;-75
2022/07/04 07:40:15;;;;;;;1.80;1.70;;;;;;;27.75;50.66;101999.94;10508519;28;20060;-74
2022/07/04 07:45:15;;;;;;;3.05;1.52;;;;;;;27.89;50.83;102002.13;10512021;28;20036;-73
2022/07/04 07:50:16;;;;;;;1.55;1.45;;;;;;;27.72;51.40;101996.91;10484026;28;20330;-75
2022/07/04 07:55:16;;;;;;;2.10;1.65;;;;;;;26.57;55.47;102013.34;10502862;28;20033;-76
2022/07/04 08:00:16;;;;;;;1.25;1.20;;;;;;;25.62;53.30;102002.59;10491049;28;20032;-73
2022/07/04 08:05:17;;;;;;;1.42;1.33;;;;;;;25.04;54.14;102023.91;10506017;28;20067;-74
2022/07/04 08:10:17;;;;;;;5.85;2.08;;;;;;;24.53;56.28;102034.59;10486833;28;20033;-75
2022/07/04 08:15:18;;;;;;;1.63;1.52;;;;;;;24.32;57.08;102028.03;10486545;28;20039;-75
2022/07/04 08:20:18;;;;;;;1.70;1.60;;;;;;;24.28;52.86;102033.25;10504599;28;20127;-74
2022/07/04 08:25:19;;;;;;;4.57;2.25;;;;;;;24.80;54.74;102042.88;10504326;28;20456;-74
2022/07/04 08:30:20;;;;;;;2.60;1.42;;;;;;;24.75;54.29;102054.72;10502998;28;20040;-75
2022/07/04 08:35:20;;;;;;;3.13;1.55;;;;;;;24.35;55.04;102060.72;10484611;28;20024;-76
2022/07/04 08:40:25;;;;;;;2.35;1.58;;;;;;;24.15;55.49;102055.78;10500938;28;20464;-75
2022/07/04 08:45:30;;;;;;;1.75;1.65;;;;;;;24.09;54.19;102060.47;10501804;28;20450;-76
2022/07/04 08:50:33;;;;;;;2.57;1.73;;;;;;;26.20;48.73;102064.41;10503138;28;20056;-74
2022/07/04 09:00:53;;;;;;;1.42;1.33;;;;;;;26.66;47.81;102067.25;10500951;28;20037;-76
2022/07/04 09:05:53;;;;;;;2.40;1.30;;;;;;;26.92;50.46;102069.19;10485934;28;20044;-76
2022/07/04 09:10:54;;;;;;;2.35;1.80;;;;;;;27.27;48.81;102071.09;10502496;28;20471;-76
2022/07/04 09:15:56;;;;;;;10.80;2.20;;;;;;;28.36;45.57;102070.34;10485455;28;20075;-75
2022/07/04 09:20:57;;;;;;;1.75;1.65;;;;;;;28.74;44.41;102063.09;10488807;28;20047;-75
2022/07/04 09:26:14;;;;;;;7.07;1.75;;;;;;;27.86;42.62;102072.31;10485011;28;20391;-76
2022/07/04 09:31:16;;;;;;;1.38;1.35;;;;;;;27.65;45.07;102074.31;10511846;28;20028;-75
2022/07/04 09:36:19;;;;;;;2.20;1.70;;;;;;;27.97;40.87;102073.91;10496824;28;20388;-72
2022/07/04 09:41:29;;;;;;;18.98;1.92;;;;;;;28.41;43.94;102060.03;10511582;28;20043;-74
2022/07/04 09:46:30;;;;;;;1.60;1.38;;;;;;;28.70;43.29;102059.22;10477933;28;20449;-75
2022/07/04 09:51:48;;;;;;;3.72;1.95;;;;;;;29.07;41.66;102046.63;10475151;28;20464;-75
2022/07/04 09:56:51;;;;;;;1.75;1.55;;;;;;;29.29;40.54;102054.50;10493502;28;20037;-75
2022/07/04 10:01:51;;;;;;;1.50;1.30;;;;;;;29.37;41.51;102051.88;10495010;28;20086;-74
2022/07/04 10:06:52;;;;;;;1.95;1.85;;;;;;;29.80;40.96;102054.75;10496289;28;20546;-74
2022/07/04 10:11:52;;;;;;;1.27;1.20;;;;;;;29.74;41.51;102058.72;10513270;28;20056;-73
2022/07/04 10:16:52;;;;;;;1.55;1.40;;;;;;;30.47;40.54;102050.97;10510111;28;20041;-76
2022/07/04 10:21:53;;;;;;;5.38;2.17;;;;;;;29.77;42.03;102060.06;10504040;28;20063;-75
2022/07/04 10:26:53;;;;;;;1.17;1.13;;;;;;;29.69;41.33;102061.56;10489994;28;20025;-76
2022/07/04 10:31:54;;;;;;;1.45;1.35;;;;;;;30.10;38.54;102058.22;10507195;28;20275;-74
2022/07/04 10:36:54;;;;;;;0.93;0.93;;;;;;;30.58;38.68;102052.47;10490468;28;20029;-76
2022/07/04 10:41:58;;;;;;;7.78;1.48;;;;;;;29.70;38.96;102062.41;10507829;28;20040;-76
2022/07/04 10:46:59;;;;;;;1.80;1.70;;;;;;;29.36;40.49;102053.03;10513226;28;20123;-75
2022/07/04 10:52:12;;;;;;;1.60;1.50;;;;;;;27.89;41.22;102043.88;10520564;28;20496;-74
2022/07/04 10:57:16;;;;;;;1.15;1.08;;;;;;;28.80;37.04;102036.84;10502262;28;20059;-75
2022/07/04 11:02:16;;;;;;;0.90;0.90;;;;;;;28.87;39.48;102044.84;10491307;28;20052;-76
2022/07/04 11:07:21;;;;;;;0.85;0.85;;;;;;;29.68;36.27;102051.56;10508199;28;20025;-75
2022/07/04 11:12:21;;;;;;;1.90;1.05;;;;;;;28.27;39.96;102047.81;10506657;28;20538;-75
2022/07/04 11:17:32;;;;;;;1.67;1.43;;;;;;;28.21;37.71;102040.66;10508411;28;20067;-77
2022/07/04 11:22:34;;;;;;;0.93;0.93;;;;;;;28.31;37.68;102039.75;10494033;28;20284;-75
2022/07/04 11:27:34;;;;;;;1.15;0.90;;;;;;;27.73;36.51;102040.34;10510944;28;20528;-75
2022/07/04 11:32:35;;;;;;;2.33;1.90;;;;;;;26.43;37.45;102040.81;10489163;28;20096;-76
2022/07/04 11:37:36;;;;;;;0.80;0.80;;;;;;;26.93;37.32;102043.03;10485724;28;20024;-75
2022/07/04 11:47:55;;;;;;;0.60;0.60;;;;;;;28.52;37.89;102021.75;10502519;28;20032;-75
2022/07/04 11:52:56;;;;;;;2.13;1.35;;;;;;;27.25;38.53;102035.25;10485395;28;20384;-75
2022/07/04 11:57:57;;;;;;;1.42;1.33;;;;;;;27.26;38.38;102036.91;10484321;28;20463;-75
2022/07/04 12:02:59;;;;;;;1.50;1.40;;;;;;;28.38;38.44;102024.34;10502272;28;20488;-75
2022/07/04 12:08:00;;;;;;;2.40;1.13;;;;;;;29.39;38.22;102023.69;10503292;28;20024;-75
2022/07/04 12:13:06;;;;;;;1.20;1.05;;;;;;;29.96;36.37;102007.84;10501985;28;20372;-75
2022/07/04 12:18:21;;;;;;;2.90;1.08;;;;;;;29.76;35.54;102005.38;10484882;28;20036;-76
2022/07/04 12:23:22;;;;;;;0.90;0.90;;;;;;;29.91;34.86;102002.34;10501102;28;20040;-76
2022/07/04 12:28:24;;;;;;;6.80;2.35;;;;;;;30.26;36.92;102006.59;10484554;28;20035;-76
2022/07/04 12:33:26;;;;;;;7.90;1.73;;;;;;;29.81;37.10;101986.59;10484713;28;20113;-76
2022/07/04 12:38:26;;;;;;;7.85;2.35;;;;;;;29.37;36.37;102004.44;10501256;28;20451;-75
2022/07/04 12:43:43;;;;;;;1.80;1.33;;;;;;;29.50;37.66;101983.34;10502875;28;20117;-76
2022/07/04 12:48:47;;;;;;;2.63;1.25;;;;;;;29.64;36.85;101983.47;10500135;28;20732;-76
2022/07/04 12:53:49;;;;;;;2.85;1.30;;;;;;;29.78;37.43;101978.81;10466205;28;20115;-75
2022/07/04 12:58:49;;;;;;;0.90;0.90;;;;;;;29.71;36.87;101992.31;10484216;28;20123;-75
2022/07/04 13:03:50;;;;;;;1.00;1.00;;;;;;;29.76;36.71;101986.66;10466634;28;20063;-75
2022/07/04 13:08:50;;;;;;;2.17;1.17;;;;;;;29.51;35.79;101967.44;10481702;28;20641;-75
2022/07/04 13:13:51;;;;;;;2.53;1.58;;;;;;;29.65;36.44;101968.41;10481625;28;20032;-75
2022/07/04 13:18:51;;;;;;;4.13;1.83;;;;;;;29.60;35.04;101976.81;10499659;28;20044;-75
2022/07/04 13:23:54;;;;;;;2.10;1.92;;;;;;;29.46;36.85;101981.47;10481650;28;20331;-75
2022/07/04 13:28:55;;;;;;;1.02;1.02;;;;;;;29.28;35.88;101975.53;10497507;28;20086;-75
2022/07/04 13:33:55;;;;;;;3.42;1.75;;;;;;;29.34;35.50;101987.47;10482622;28;20074;-74
2022/07/04 13:38:56;;;;;;;1.73;1.63;;;;;;;29.08;37.49;101973.84;10498896;28;20067;-76
2022/07/04 13:43:56;;;;;;;1.95;1.70;;;;;;;29.04;36.68;101980.31;10498251;28;20037;-76
2022/07/04 13:48:56;;;;;;;6.10;1.63;;;;;;;28.91;37.65;101979.03;10499208;28;20029;-76
2022/07/04 13:53:57;;;;;;;1.87;1.67;;;;;;;28.91;36.55;101971.50;10480370;28;20780;-75
2022/07/04 13:58:58;;;;;;;1.40;1.33;;;;;;;28.41;36.73;101979.22;10498945;28;20582;-75
2022/07/04 14:03:58;;;;;;;2.25;1.45;;;;;;;28.46;37.63;101989.47;10496431;28;20052;-75
2022/07/04 14:08:58;;;;;;;1.55;1.40;;;;;;;28.06;38.38;101980.31;10497377;28;20041;-75
2022/07/04 14:13:59;;;;;;;4.63;1.45;;;;;;;27.89;38.24;101986.28;10497898;28;20036;-75
2022/07/04 14:18:59;;;;;;;2.50;1.35;;;;;;;27.88;39.51;101981.81;10498513;28;20041;-75
2022/07/04 14:24:00;;;;;;;1.50;1.40;;;;;;;27.71;39.30;101981.34;10496473;28;20093;-75
2022/07/04 14:29:00;;;;;;;3.63;1.42;;;;;;;27.57;39.27;101973.63;10479955;28;20045;-76
2022/07/04 14:34:02;;;;;;;3.85;1.25;;;;;;;27.31;38.80;101980.41;10497980;28;20060;-75
2022/07/04 14:39:03;;;;;;;1.95;1.75;;;;;;;27.08;39.10;101981.84;10498392;28;20041;-75
2022/07/04 14:44:03;;;;;;;1.33;1.23;;;;;;;26.87;40.18;101972.75;10479548;28;20471;-75
2022/07/04 14:49:04;;;;;;;1.52;1.42;;;;;;;26.74;40.83;101984.44;10497145;28;20033;-75
2022/07/04 14:54:04;;;;;;;1.55;1.45;;;;;;;26.54;39.96;101985.28;10497310;28;20369;-74
2022/07/04 14:59:05;;;;;;;1.33;1.27;;;;;;;26.59;39.64;101982.53;10497533;28;20083;-74
2022/07/04 15:04:05;;;;;;;2.50;1.67;;;;;;;26.28;40.99;101971.38;10494371;28;20053;-74
2022/07/04 15:09:06;;;;;;;2.42;1.67;;;;;;;26.30;41.44;101971.13;10508155;28;20033;-74
2022/07/04 15:14:06;;;;;;;2.63;2.42;;;;;;;26.06;40.97;101965.25;10505995;28;20079;-74
2022/07/04 15:19:07;;;;;;;1.23;1.20;;;;;;;25.95;41.24;101967.19;10503111;28;20032;-75
2022/07/04 15:24:17;;;;;;;6.15;1.60;;;;;;;25.58;40.95;101968.16;10486795;28;20352;-75
2022/07/04 15:29:18;;;;;;;1.85;1.75;;;;;;;25.35;41.41;101965.88;10505215;28;20061;-75
2022/07/04 15:34:18;;;;;;;1.20;1.20;;;;;;;25.17;41.28;101975.50;10503962;28;20032;-74
2022/07/04 15:39:19;;;;;;;1.63;1.52;;;;;;;25.11;42.28;101971.00;10504420;28;20460;-75
2022/07/04 15:44:21;;;;;;;1.70;1.60;;;;;;;24.97;42.31;101970.66;10504295;28;20033;-74
2022/07/04 15:49:21;;;;;;;6.43;2.13;;;;;;;24.86;42.55;101960.63;10486995;28;20114;-74
2022/07/04 15:54:22;;;;;;;3.33;2.33;;;;;;;24.72;42.20;101974.09;10504118;28;20451;-75
2022/07/04 15:59:22;;;;;;;2.38;2.13;;;;;;;24.54;42.42;101967.88;10502776;28;20075;-76
2022/07/04 16:04:23;;;;;;;1.90;1.73;;;;;;;24.44;42.62;101958.66;10503041;28;20437;-75
2022/07/04 16:09:23;;;;;;;1.70;1.40;;;;;;;24.07;42.35;101953.88;10502287;28;20040;-75
2022/07/04 16:14:23;;;;;;;4.68;2.05;;;;;;;23.76;43.38;101952.75;10501746;28;20039;-75
2022/07/04 16:19:24;;;;;;;4.78;2.22;;;;;;;23.72;43.42;101946.06;10501091;28;20033;-73
2022/07/04 16:24:24;;;;;;;0.80;0.80;;;;;;;23.84;43.77;101950.34;10502201;28;20141;-75
2022/07/04 16:29:25;;;;;;;1.80;1.58;;;;;;;23.22;43.93;101950.69;10483983;28;20066;-75
2022/07/04 16:34:25;;;;;;;4.05;1.52;;;;;;;22.48;44.61;101951.00;10501675;28;20082;-75
2022/07/04 16:39:25;;;;;;;2.42;2.22;;;;;;;22.11;45.13;101953.38;10483393;28;20044;-75
2022/07/04 16:44:26;;;;;;;2.80;2.00;;;;;;;21.76;45.84;101946.13;10500513;28;20029;-75
2022/07/04 16:49:26;;;;;;;3.20;1.65;;;;;;;21.66;46.04;101945.94;10484918;28;20036;-73
2022/07/04 16:54:26;;;;;;;2.38;1.42;;;;;;;21.56;45.26;101944.66;10500323;28;20077;-75
2022/07/04 16:59:27;;;;;;;5.75;1.73;;;;;;;21.38;45.84;101950.38;10500823;28;20032;-74
2022/07/04 17:04:27;;;;;;;1.85;1.40;;;;;;;21.30;45.92;101947.94;10501370;28;20144;-74
2022/07/04 17:09:28;;;;;;;1.33;1.33;;;;;;;21.01;48.51;101947.88;10501362;28;20047;-74
2022/07/04 17:14:28;;;;;;;2.08;1.95;;;;;;;20.93;47.68;101940.00;10500292;28;20116;-74
2022/07/04 17:19:29;;;;;;;6.57;2.47;;;;;;;20.83;47.15;101954.34;10499991;28;20032;-74
2022/07/04 17:24:29;;;;;;;1.90;1.73;;;;;;;20.69;47.95;101952.94;10498899;28;20472;-74
2022/07/04 17:29:29;;;;;;;3.40;2.08;;;;;;;20.56;48.05;101959.53;10495562;28;20040;-75
2022/07/04 17:34:30;;;;;;;10.43;1.92;;;;;;;20.37;49.22;101955.16;10506408;28;20392;-74
2022/07/04 17:39:30;;;;;;;1.40;1.40;;;;;;;20.21;49.59;101963.03;10507408;28;20044;-73
2022/07/04 17:44:31;;;;;;;1.27;1.15;;;;;;;20.02;49.09;101966.94;10499777;28;20036;-74
2022/07/04 17:49:31;;;;;;;5.07;2.42;;;;;;;19.91;49.54;101957.59;10498995;28;20079;-74
2022/07/04 17:54:32;;;;;;;1.92;1.77;;;;;;;19.79;49.89;101964.09;10499829;28;20051;-74
2022/07/04 17:59:32;;;;;;;2.70;1.42;;;;;;;19.74;49.89;101959.28;10480506;28;20068;-74
2022/07/04 18:04:33;;;;;;;2.40;1.88;;;;;;;19.64;50.49;101959.84;10475858;28;20053;-74
2022/07/04 18:09:33;;;;;;;5.05;2.08;;;;;;;19.71;51.12;101968.00;10455983;28;20501;-73
2022/07/04 18:14:33;;;;;;;4.00;3.13;;;;;;;19.67;52.96;101970.38;10457118;28;20476;-74
2022/07/04 18:19:34;;;;;;;2.90;1.80;;;;;;;19.64;52.85;101975.50;10457632;28;20041;-73
2022/07/04 18:24:34;;;;;;;1.75;1.65;;;;;;;19.55;53.28;101966.69;10456547;28;20033;-73
2022/07/04 18:29:35;;;;;;;6.10;2.60;;;;;;;19.48;53.78;101976.94;10456640;28;20489;-73
2022/07/04 18:34:35;;;;;;;4.25;1.85;;;;;;;19.39;53.11;101981.91;10457903;28;20484;-74
2022/07/04 18:39:35;;;;;;;4.47;2.25;;;;;;;19.24;53.85;101987.81;10455207;28;20043;-74
2022/07/04 18:44:36;;;;;;;4.13;2.30;;;;;;;19.15;53.33;101982.84;10460372;28;20033;-73
2022/07/04 18:49:38;;;;;;;1.60;1.50;;;;;;;18.98;54.71;101979.84;10465154;28;20040;-74
2022/07/04 18:54:40;;;;;;;2.67;2.03;;;;;;;18.81;54.62;101963.13;10462955;28;20036;-74
2022/07/04 18:59:40;;;;;;;1.73;1.63;;;;;;;18.84;55.84;101987.38;10463559;28;20036;-74
2022/07/04 19:04:41;;;;;;;5.85;2.22;;;;;;;18.74;54.89;101998.88;10484852;28;20464;-73
2022/07/04 19:09:41;;;;;;;1.90;1.80;;;;;;;18.62;56.13;102010.78;10505970;28;20040;-74
2022/07/04 19:14:42;;;;;;;2.92;2.08;;;;;;;18.48;55.44;102004.56;10505175;28;20072;-73
2022/07/04 19:19:42;;;;;;;2.05;1.98;;;;;;;18.34;55.82;102012.88;10504510;28;20498;-74
2022/07/04 19:24:45;;;;;;;2.28;2.08;;;;;;;18.21;57.12;102012.97;10504623;28;20086;-75
2022/07/04 19:29:45;;;;;;;1.90;1.80;;;;;;;18.10;56.08;102002.72;10504071;28;20032;-76
2022/07/04 19:34:47;;;;;;;2.85;2.65;;;;;;;18.02;56.65;102019.41;10503018;28;20036;-73
2022/07/04 19:39:48;;;;;;;3.47;2.17;;;;;;;17.89;57.03;102014.84;10503119;28;20029;-76
2022/07/04 19:44:48;;;;;;;2.83;2.15;;;;;;;17.82;57.32;102025.00;10487180;28;20032;-74
2022/07/04 19:49:49;;;;;;;2.45;2.22;;;;;;;17.70;57.20;102035.78;10485558;28;20036;-74
2022/07/04 19:54:50;;;;;;;2.03;1.92;;;;;;;17.59;59.50;102033.72;10511837;28;20025;-75
2022/07/04 19:59:50;;;;;;;3.75;2.33;;;;;;;17.52;58.10;102043.88;10520288;28;20036;-73
2022/07/04 20:04:50;;;;;;;2.20;2.00;;;;;;;17.32;60.14;102028.31;10494159;28;20463;-74
2022/07/04 20:09:52;;;;;;;5.00;2.90;;;;;;;17.31;59.22;102051.28;10484772;28;20150;-74
2022/07/04 20:14:52;;;;;;;2.50;2.30;;;;;;;17.25;59.67;102045.81;10467155;28;20068;-68
2022/07/04 20:19:53;;;;;;;3.97;3.33;;;;;;;17.17;59.02;102064.16;10501947;28;20068;-68
2022/07/04 20:24:55;;;;;;;9.52;2.88;;;;;;;17.06;59.07;102063.97;10501553;28;20440;-67
2022/07/04 20:29:56;;;;;;;3.33;2.20;;;;;;;17.01;60.42;102078.28;10501552;28;20038;-67
2022/07/04 20:35:09;;;;;;;6.13;4.03;;;;;;;16.99;61.52;102080.38;10500886;28;20040;-66
2022/07/04 20:40:11;;;;;;;2.80;2.28;;;;;;;16.92;60.86;102088.59;10501002;28;20436;-67
2022/07/04 20:45:11;;;;;;;2.80;2.60;;;;;;;16.90;62.03;102093.44;10484196;28;20029;-67
2022/07/04 20:50:12;;;;;;;11.50;4.38;;;;;;;17.01;61.99;102089.22;10484168;28;20064;-67
2022/07/04 20:55:12;;;;;;;3.13;2.58;;;;;;;17.27;62.46;102087.53;10500550;28;20037;-65
2022/07/04 21:00:14;;;;;;;3.40;2.83;;;;;;;17.53;64.24;102100.31;10499733;28;20037;-67
2022/07/04 21:05:15;;;;;;;9.57;3.00;;;;;;;17.69;62.76;102088.88;10500140;28;20046;-68
2022/07/04 21:10:15;;;;;;;4.53;3.33;;;;;;;17.86;62.06;102095.59;10497829;28;20036;-67
2022/07/04 21:15:16;;;;;;;7.82;2.67;;;;;;;17.92;61.74;102093.03;10500167;28;20033;-66
2022/07/04 21:20:19;;;;;;;5.60;2.50;;;;;;;17.96;61.93;102094.28;10499181;28;20037;-69
2022/07/04 21:25:20;;;;;;;3.85;3.33;;;;;;;18.01;61.34;102105.44;10499112;28;20039;-69
2022/07/04 21:30:20;;;;;;;3.58;3.28;;;;;;;17.99;61.87;102113.88;10499148;28;20476;-73
2022/07/04 21:35:21;;;;;;;3.40;2.60;;;;;;;17.98;61.63;102103.97;10499930;28;20067;-73
2022/07/04 21:40:21;;;;;;;3.70;3.05;;;;;;;17.95;61.68;102109.06;10499073;28;20044;-73
2022/07/04 21:45:23;;;;;;;2.22;2.13;;;;;;;18.01;61.91;102108.19;10498546;28;20044;-74
2022/07/04 21:50:23;;;;;;;3.30;2.40;;;;;;;18.08;61.98;102112.56;10481785;28;20028;-74
2022/07/04 21:55:23;;;;;;;3.17;2.63;;;;;;;18.08;62.09;102123.53;10499318;28;20442;-73
2022/07/04 22:00:24;;;;;;;3.88;2.60;;;;;;;18.10;61.92;102126.06;10498747;28;20388;-72
2022/07/04 22:05:24;;;;;;;11.93;3.25;;;;;;;18.07;62.10;102110.91;10497828;28;20048;-73
2022/07/04 22:10:25;;;;;;;5.43;2.72;;;;;;;18.03;62.58;102120.63;10480725;28;20433;-73
2022/07/04 22:15:25;;;;;;;3.50;3.30;;;;;;;17.94;62.61;102112.88;10499220;28;20372;-73
2022/07/04 22:20:26;;;;;;;3.28;2.97;;;;;;;17.92;62.56;102123.19;10485925;28;20444;-73
2022/07/04 22:25:26;;;;;;;4.43;3.80;;;;;;;17.93;62.75;102124.88;10510332;28;20039;-73
2022/07/04 22:30:29;;;;;;;4.90;3.55;;;;;;;17.93;63.00;102120.22;10511403;28;20380;-73
2022/07/04 22:35:30;;;;;;;4.93;3.40;;;;;;;17.89;63.62;102127.19;10497375;28;20556;-73
2022/07/04 22:40:30;;;;;;;4.28;3.92;;;;;;;17.92;63.21;102123.19;10480584;28;20098;-73
2022/07/04 22:45:31;;;;;;;3.38;3.08;;;;;;;17.87;63.60;102121.13;10497880;28;20064;-73
2022/07/04 22:50:31;;;;;;;3.25;2.95;;;;;;;17.84;63.60;102124.28;10498234;28;20055;-74
2022/07/04 22:55:31;;;;;;;6.20;2.80;;;;;;;17.86;63.39;102124.88;10497193;28;20072;-74
2022/07/04 23:00:32;;;;;;;6.90;3.67;;;;;;;17.84;63.55;102127.03;10497934;28;20044;-73
2022/07/04 23:05:32;;;;;;;4.65;3.83;;;;;;;17.79;63.68;102130.41;10497864;28;20106;-73
2022/07/04 23:10:33;;;;;;;11.30;3.25;;;;;;;17.75;63.87;102118.16;10496561;28;20028;-73
2022/07/04 23:15:33;;;;;;;3.83;3.40;;;;;;;17.66;64.04;102120.28;10462800;28;20384;-73
2022/07/04 23:20:33;;;;;;;8.27;3.45;;;;;;;17.58;64.38;102125.16;10478910;28;20025;-72
2022/07/04 23:25:34;;;;;;;4.50;3.65;;;;;;;17.44;64.45;102116.13;10496189;28;20388;-74
2022/07/04 23:30:34;;;;;;;3.78;3.47;;;;;;;17.25;64.56;102117.00;10499871;28;20162;-73